Record high temperature 42.2°C Record low temperature -14.6°C Record high gust 76.2 km/h Record high average 96.8 km/h Record daily rain 55.3 mm Record low windchill -17.5°C Record high barometer 1046.0 hPa Record low barometer 969.0 hPa
Daily high pressure 1026.0 hPa Daily low pressure 1024.0 hPa Daily low windchill 0.6°C Daily high heat index 6.9°C Daily high gust speed 31.6 kmh NNE Daily high average speed 22.6 kmh NNE

This page is updated from recent data collected by a WMR200 weather station Use the Reload or Refresh facility on your browser to retrieve the latest data.

Status report of weather station: Bienvenue sur la Station Météo de Godarville



Weather report/warning/Metars

Alexandroupoli Airport , Greece (LGAL) 40-51N 025-55E 3M
Mar 29, 2020 - 03:50 AM EDT / 2020.03.29 0750 UTC
Wind: from the W (260 degrees) at 6 MPH (5 KT):0
Visibility: greater than 7 mile(s):0
Sky conditions: mostly clear
Temperature: 57 F (14 C)
Dew Point: 51 F (11 C)
Relative Humidity: 82%
Pressure (altimeter): 29.83 in. Hg (1010 hPa)
ob: LGAL 290750Z 26005KT 9999 FEW020 14/11 Q1010
cycle: 8

Charleroi / Gosselies, Belgium (EBCI) 50-28N 004-27E 192M
Mar 29, 2020 - 03:50 AM EDT / 2020.03.29 0750 UTC
Wind: from the NNE (020 degrees) at 17 MPH (15 KT) gusting to 29 MPH (25 KT):0
Visibility: greater than 7 mile(s):0
Sky conditions: mostly clear
Temperature: 41 F (5 C)
Dew Point: 30 F (-1 C)
Relative Humidity: 65%
Pressure (altimeter): 30.33 in. Hg (1027 hPa)
ob: EBCI 290750Z AUTO 02015G25KT 9999 // FEW025/// 05/M01 Q1027
cycle: 8

Bruxelles National, Belgium (EBBR) 50-54N 004-32E 58M
Mar 29, 2020 - 03:50 AM EDT / 2020.03.29 0750 UTC
Wind: from the NNE (030 degrees) at 22 MPH (19 KT):0
Visibility: greater than 7 mile(s):0
Sky conditions: mostly clear
Temperature: 42 F (6 C)
Dew Point: 30 F (-1 C)
Relative Humidity: 60%
Pressure (altimeter): 30.36 in. Hg (1028 hPa)
ob: EBBR 290750Z 03019KT 9999 FEW035 06/M01 Q1028 TEMPO 02020G30KT
cycle: 8

Koksijde, Belgium (EBFN) 51-05N 002-39E 9M
Mar 29, 2020 - 03:55 AM EDT / 2020.03.29 0755 UTC
Wind: from the NE (040 degrees) at 9 MPH (8 KT):0
Visibility: greater than 7 mile(s):0
Sky conditions: overcast
Temperature: 37 F (3 C)
Dew Point: 35 F (2 C)
Relative Humidity: 93%
Pressure (altimeter): 30.47 in. Hg (1032 hPa)
ob: EBFN 290755Z AUTO 04008KT 9999 SCT014/// OVC071/// 03/02 Q1032 GRN
cycle: 8

Poznan, Poland (EPPO) 52-25N 016-50E 92M
Mar 29, 2020 - 04:00 AM EDT / 2020.03.29 0800 UTC
Wind: from the N (010 degrees) at 12 MPH (10 KT):0
Visibility: greater than 7 mile(s):0
Sky conditions: mostly cloudy
Temperature: 42 F (6 C)
Dew Point: 33 F (1 C)
Relative Humidity: 70%
Pressure (altimeter): 30.00 in. Hg (1016 hPa)
ob: EPPO 290800Z 01010KT 9999 BKN020 06/01 Q1016 
cycle: 8



Coucher du Soleil:
19:09:25

Lever de Lune:
08:24:31 28/03/20

Coucher de Lune:
23:19:16 28/03/20

Premier Quartier 1 avril 2020
Pleine Lune 8 avril 2020
Dernier Quartier 14 avril 2020
Nouvelle Lune 23 avril 2020
Âge de lune : 4 jours,2 heures,26 minutes,18%
Les heures du jour possible étaient aujourd’hui 12:42



The data is logged at two minute intervals, but there is data recorded every minute.

Use the RELOAD facility on your browser to retrieve the latest data.

Click here for a daily update of the averages/extremes to date for the month
Created by "Weather Display" software version 10.37P at this start time/date 22:42:19 28/03/2020